createdAt,value
2022-08-24T08:19:53.038Z,57.60
2022-08-24T08:23:14.885Z,55.20
2022-08-24T08:25:59.835Z,54.90
2022-08-24T08:28:35.423Z,53.00
2022-08-24T08:31:04.825Z,52.60
2022-08-24T08:33:33.622Z,52.50
2022-08-24T08:36:50.910Z,50.70
2022-08-24T08:39:26.267Z,50.70
2022-08-24T08:42:30.236Z,51.20
2022-08-24T08:45:47.499Z,50.40
2022-08-24T08:48:48.243Z,50.70
2022-08-24T08:51:31.439Z,49.50
2022-08-24T08:54:11.336Z,48.80
2022-08-24T08:57:19.680Z,50.10
2022-08-24T09:00:15.851Z,50.30
2022-08-24T09:02:46.210Z,50.40
2022-08-24T09:05:44.033Z,48.90
2022-08-24T09:08:52.072Z,49.00
2022-08-24T09:11:19.168Z,49.50
2022-08-24T09:14:07.763Z,47.60
2022-08-24T09:17:00.757Z,48.20
2022-08-24T09:20:18.473Z,47.40
2022-08-24T09:22:50.919Z,48.10
2022-08-24T09:25:51.106Z,48.50
2022-08-24T09:28:24.259Z,48.30
2022-08-24T09:31:19.362Z,48.00
2022-08-24T09:34:06.017Z,47.50
2022-08-24T09:37:02.433Z,46.00
2022-08-24T09:39:35.245Z,46.00
2022-08-24T09:42:20.361Z,47.00
2022-08-24T09:44:47.996Z,47.10
2022-08-24T09:47:42.951Z,46.40
2022-08-24T09:50:18.607Z,46.50
2022-08-24T09:52:49.523Z,47.40
2022-08-24T09:55:34.660Z,47.80
2022-08-24T09:58:16.105Z,47.30
2022-08-24T10:01:08.945Z,46.70
2022-08-24T10:03:48.746Z,46.00
2022-08-24T10:06:37.653Z,45.30
2022-08-24T10:09:31.533Z,44.80
2022-08-24T10:12:12.579Z,46.10
2022-08-24T10:15:04.212Z,45.50
2022-08-24T10:17:34.152Z,45.90
2022-08-24T10:20:26.216Z,45.50
2022-08-24T10:23:30.297Z,45.00
2022-08-24T10:26:04.892Z,45.10
2022-08-24T10:28:46.841Z,44.40
2022-08-24T10:31:35.094Z,44.90
2022-08-24T10:34:12.536Z,44.20
2022-08-24T10:36:39.330Z,43.20
2022-08-24T10:39:30.765Z,42.70
2022-08-24T10:42:37.791Z,43.40
2022-08-24T10:45:18.525Z,43.80
2022-08-24T10:48:19.417Z,42.90
2022-08-24T10:51:08.563Z,44.60
2022-08-24T10:53:35.938Z,42.80
2022-08-24T10:56:15.561Z,44.40
2022-08-24T10:58:56.380Z,44.50
2022-08-24T11:01:31.017Z,44.10
2022-08-24T11:04:13.029Z,43.90
2022-08-24T11:06:44.299Z,41.90
2022-08-24T11:09:17.250Z,42.80
2022-08-24T11:11:48.935Z,42.70
2022-08-24T11:14:15.797Z,41.10
2022-08-24T11:16:47.534Z,41.00
2022-08-24T11:19:26.877Z,41.40
2022-08-24T11:21:58.732Z,41.60
2022-08-24T11:24:28.070Z,39.80
2022-08-24T11:27:02.145Z,39.30
2022-08-24T11:29:50.056Z,38.70
2022-08-24T11:32:45.562Z,38.20
2022-08-24T11:35:24.956Z,37.60
2022-08-24T11:37:56.185Z,37.60
2022-08-24T11:40:28.589Z,39.50
2022-08-24T11:43:06.062Z,38.30
2022-08-24T11:45:51.470Z,40.90
2022-08-24T11:48:46.160Z,41.00
2022-08-24T11:51:29.905Z,40.60
2022-08-24T11:54:19.360Z,40.50
2022-08-24T11:57:01.218Z,40.50
2022-08-24T11:59:54.057Z,41.50
2022-08-24T12:02:28.638Z,44.00
2022-08-24T12:05:08.377Z,45.60
2022-08-24T12:08:00.821Z,46.00
2022-08-24T12:10:46.028Z,45.40
2022-08-24T12:13:33.822Z,44.70
2022-08-24T12:16:22.559Z,45.40
2022-08-24T12:19:16.601Z,47.40
2022-08-24T12:21:47.928Z,46.40
2022-08-24T12:24:43.104Z,45.90
2022-08-24T12:27:14.618Z,45.40
2022-08-24T12:30:00.578Z,45.00
2022-08-24T12:32:49.994Z,44.30
2022-08-24T12:35:39.419Z,43.60
2022-08-24T12:38:20.204Z,43.90
2022-08-24T12:41:00.108Z,43.50
2022-08-24T12:43:40.724Z,43.80
2022-08-24T12:46:08.216Z,43.50
2022-08-24T12:48:49.066Z,43.10
2022-08-24T12:52:00.590Z,42.80
2022-08-24T12:54:55.383Z,42.60
2022-08-24T12:57:57.956Z,42.70
2022-08-24T13:00:32.419Z,42.70
2022-08-24T13:03:03.839Z,43.20
2022-08-24T13:05:56.855Z,42.40
2022-08-24T13:08:43.490Z,42.60
2022-08-24T13:11:48.461Z,42.00
2022-08-24T13:14:18.466Z,41.80
2022-08-24T13:16:57.486Z,42.20
2022-08-24T13:19:28.473Z,41.00
2022-08-24T13:21:59.575Z,42.40
2022-08-24T13:24:31.655Z,43.60
2022-08-24T13:27:18.552Z,43.00
2022-08-24T13:30:07.641Z,42.00
2022-08-24T13:32:44.225Z,41.40
2022-08-24T13:35:57.072Z,41.80
2022-08-24T13:38:33.949Z,42.40
2022-08-24T13:41:15.987Z,43.20
2022-08-24T13:44:01.944Z,41.00
2022-08-24T13:46:41.018Z,40.80
2022-08-24T13:49:33.274Z,40.10
2022-08-24T13:52:19.180Z,40.80
2022-08-24T13:55:06.703Z,41.70
2022-08-24T13:57:59.909Z,42.40
2022-08-24T14:00:29.648Z,42.20
2022-08-24T14:03:26.784Z,44.30
2022-08-24T14:06:21.545Z,46.30
2022-08-24T14:09:17.051Z,46.60
2022-08-24T14:12:00.272Z,47.50
2022-08-24T14:14:51.423Z,48.20
2022-08-24T14:17:54.135Z,46.60
2022-08-24T14:20:59.669Z,46.00
2022-08-24T14:23:50.074Z,45.80
2022-08-24T14:26:43.535Z,46.60
2022-08-24T14:29:19.645Z,46.50
2022-08-24T14:32:11.569Z,46.30
2022-08-24T14:34:58.153Z,46.80
2022-08-24T14:37:50.520Z,44.90
2022-08-24T14:40:35.021Z,45.10
2022-08-24T14:43:46.909Z,43.90
2022-08-24T14:46:40.412Z,46.80
2022-08-24T14:49:44.003Z,49.10
2022-08-24T14:52:43.803Z,50.80
2022-08-24T14:55:45.269Z,49.80
2022-08-24T14:58:33.154Z,48.70
2022-08-24T15:01:26.733Z,48.30
2022-08-24T15:04:42.179Z,48.20
2022-08-24T15:07:20.593Z,48.80
2022-08-24T15:10:04.630Z,47.90
2022-08-24T15:12:48.157Z,47.40
2022-08-24T17:55:25.085Z,93.20
